Aldrich, Missouri
Current Conditions -  °F | °C
As of 7:52 AM on Thursday 29 Jan 2015 (Local Time) from KSGF Reporting Station
Overcast Overcast  
Wind Chill: 38°   Ceiling: 2200
Heat Index: 45°   Visibility: 8mi
Dew Point: 36°   Wind: 15mph
Humidity: 71%   Direction: 350°N
Pressure: 30.12"   Gusts: NA
Location:  37.55°N, 93.55°W
Report Text: KSGF 291352Z 35013KT 8SM OVC022 07/02 A3012 RMK AO2 SLP200 T00720022
Loading
Personal Weather Stations






























Interactive Weather Map New forecast layout! Learn more

10-Day Weather Forecast

Advertisements
Track Severe Weather on mobile